createdAt,value
2022-11-13T00:00:59.810Z,0.80
2022-11-13T00:03:46.759Z,0.80
2022-11-13T00:06:34.427Z,0.70
2022-11-13T00:09:21.154Z,0.70
2022-11-13T00:12:08.409Z,0.70
2022-11-13T00:14:56.754Z,0.70
2022-11-13T00:17:46.032Z,0.70
2022-11-13T00:20:32.738Z,0.70
2022-11-13T00:23:19.579Z,0.60
2022-11-13T00:26:09.991Z,0.50
2022-11-13T00:28:58.745Z,0.50
2022-11-13T00:31:47.253Z,0.60
2022-11-13T00:34:47.026Z,0.60
2022-11-13T00:37:34.243Z,0.60
2022-11-13T00:40:20.955Z,0.60
2022-11-13T00:43:08.005Z,0.50
2022-11-13T00:45:55.253Z,0.50
2022-11-13T00:48:43.719Z,0.40
2022-11-13T00:51:30.855Z,0.40
2022-11-13T00:54:17.616Z,0.40
2022-11-13T00:57:04.563Z,0.40
2022-11-13T00:59:51.248Z,0.30
2022-11-13T01:02:38.154Z,0.30
2022-11-13T01:05:26.987Z,0.30
2022-11-13T01:08:15.161Z,0.30
2022-11-13T01:11:01.967Z,0.30
2022-11-13T01:13:50.469Z,0.30
2022-11-13T01:16:38.986Z,0.30
2022-11-13T01:19:25.764Z,0.40
2022-11-13T01:22:13.834Z,0.40
2022-11-13T01:25:00.935Z,0.40
2022-11-13T01:27:47.982Z,0.30
2022-11-13T01:30:34.926Z,0.40
2022-11-13T01:33:21.867Z,0.30
2022-11-13T01:36:12.215Z,0.30
2022-11-13T01:39:00.760Z,0.30
2022-11-13T01:41:47.592Z,0.20
2022-11-13T01:44:50.624Z,0.20
2022-11-13T01:47:37.879Z,0.10
2022-11-13T01:50:24.990Z,0.10
2022-11-13T01:53:12.935Z,0.10
2022-11-13T01:56:01.220Z,0.10
2022-11-13T01:58:53.198Z,0.00
2022-11-13T02:01:40.637Z,0.00
2022-11-13T02:04:29.750Z,0.00
2022-11-13T02:07:18.972Z,0.00
2022-11-13T02:10:07.518Z,0.00
2022-11-13T02:12:56.396Z,-0.10
2022-11-13T02:15:45.250Z,-0.10
2022-11-13T02:18:33.581Z,-0.10
2022-11-13T02:21:31.251Z,-0.10
2022-11-13T02:24:27.150Z,-0.10
2022-11-13T02:27:25.101Z,-0.10
2022-11-13T02:30:16.419Z,-0.10
2022-11-13T02:33:03.816Z,-0.20
2022-11-13T02:35:50.754Z,-0.20
2022-11-13T02:38:38.980Z,-0.30
2022-11-13T02:41:28.809Z,-0.30
2022-11-13T02:44:16.212Z,-0.30
2022-11-13T02:47:03.145Z,-0.20
2022-11-13T02:49:50.012Z,-0.30
2022-11-13T02:52:38.975Z,-0.30
2022-11-13T02:55:27.146Z,-0.30
2022-11-13T02:58:15.981Z,-0.20
2022-11-13T03:01:03.747Z,-0.20
2022-11-13T03:03:58.636Z,-0.20
2022-11-13T03:06:46.199Z,-0.20
2022-11-13T03:09:33.397Z,-0.20
2022-11-13T03:12:20.450Z,-0.20
2022-11-13T03:15:10.867Z,-0.20
2022-11-13T03:17:58.270Z,-0.30
2022-11-13T03:20:45.727Z,-0.30
2022-11-13T03:23:32.954Z,-0.30
2022-11-13T03:26:19.811Z,-0.30
2022-11-13T03:29:06.575Z,-0.30
2022-11-13T03:31:54.636Z,-0.30
2022-11-13T03:34:41.683Z,-0.40
2022-11-13T03:37:28.762Z,-0.40
2022-11-13T03:40:15.428Z,-0.50
2022-11-13T03:43:02.221Z,-0.50
2022-11-13T03:45:49.523Z,-0.50
2022-11-13T03:48:38.192Z,-0.50
2022-11-13T03:51:25.057Z,-0.50
2022-11-13T03:54:12.181Z,-0.50
2022-11-13T03:56:59.523Z,-0.60
2022-11-13T03:59:46.384Z,-0.60
2022-11-13T04:02:33.528Z,-0.60
2022-11-13T04:05:23.048Z,-0.70
2022-11-13T04:08:10.325Z,-0.70
2022-11-13T04:11:06.166Z,-0.70
2022-11-13T04:13:52.909Z,-0.70
2022-11-13T04:16:39.602Z,-0.70
2022-11-13T04:19:26.487Z,-0.70
2022-11-13T04:22:14.461Z,-0.70
2022-11-13T04:25:01.578Z,-0.70
2022-11-13T04:27:50.309Z,-0.70
2022-11-13T04:30:37.439Z,-0.80
2022-11-13T04:33:24.159Z,-0.80
2022-11-13T04:36:11.336Z,-0.80
2022-11-13T04:38:59.914Z,-0.80
2022-11-13T04:42:03.996Z,-0.80
2022-11-13T04:44:50.774Z,-0.70
2022-11-13T04:47:37.751Z,-0.70
2022-11-13T04:50:25.274Z,-0.70
2022-11-13T04:53:12.160Z,-0.70
2022-11-13T04:56:00.759Z,-0.70
2022-11-13T04:58:48.108Z,-0.70
2022-11-13T05:01:36.640Z,-0.70
2022-11-13T05:04:23.874Z,-0.70
2022-11-13T05:07:11.076Z,-0.80
2022-11-13T05:09:58.299Z,-0.80
2022-11-13T05:12:46.570Z,-0.80
2022-11-13T05:15:33.296Z,-0.80
2022-11-13T05:18:20.177Z,-0.80
2022-11-13T05:21:08.161Z,-0.80
2022-11-13T05:23:55.215Z,-0.80
2022-11-13T05:26:41.962Z,-0.80
2022-11-13T05:29:30.282Z,-0.80
2022-11-13T05:32:17.004Z,-0.80
2022-11-13T05:35:04.188Z,-0.80
2022-11-13T05:37:51.383Z,-0.90
2022-11-13T05:40:38.526Z,-0.90
2022-11-13T05:43:25.681Z,-0.90
2022-11-13T05:46:18.444Z,-1.00
2022-11-13T05:49:05.890Z,-1.00
2022-11-13T05:51:55.083Z,-1.00
2022-11-13T05:54:42.072Z,-1.00
2022-11-13T05:57:28.783Z,-1.10
2022-11-13T06:00:16.949Z,-1.10
2022-11-13T06:03:05.337Z,-1.10
2022-11-13T06:05:52.121Z,-1.10
2022-11-13T06:08:39.653Z,-1.10
2022-11-13T06:11:28.086Z,-1.10
2022-11-13T06:14:15.266Z,-1.10
2022-11-13T06:17:02.263Z,-1.10
2022-11-13T06:19:50.542Z,-1.10
2022-11-13T06:22:37.772Z,-1.10
2022-11-13T06:25:24.819Z,-1.10
2022-11-13T06:28:11.576Z,-1.10
2022-11-13T06:31:03.217Z,-1.10
2022-11-13T06:33:50.846Z,-1.10
2022-11-13T06:36:40.288Z,-1.10
2022-11-13T06:39:27.843Z,-1.10
2022-11-13T06:42:15.815Z,-1.10
2022-11-13T06:45:03.667Z,-1.10
2022-11-13T06:47:51.654Z,-1.00
2022-11-13T06:50:42.362Z,-0.90
2022-11-13T06:53:33.692Z,-0.70
2022-11-13T06:56:22.535Z,-0.60
2022-11-13T06:59:11.472Z,-0.50
2022-11-13T07:01:58.985Z,-0.40
2022-11-13T07:04:46.507Z,-0.30
2022-11-13T07:07:34.591Z,-0.20
2022-11-13T07:10:23.743Z,-0.20
2022-11-13T07:13:11.621Z,0.10
2022-11-13T07:16:15.957Z,0.50
2022-11-13T07:19:05.784Z,0.80
2022-11-13T07:21:53.097Z,1.10
2022-11-13T07:24:40.942Z,1.30
2022-11-13T07:27:36.370Z,1.40
2022-11-13T07:30:25.156Z,1.40
2022-11-13T07:33:14.256Z,1.30
2022-11-13T07:36:02.382Z,1.30
2022-11-13T07:38:50.245Z,1.30
2022-11-13T07:41:38.509Z,1.30
2022-11-13T07:44:52.920Z,1.40
2022-11-13T07:47:38.541Z,1.60
2022-11-13T07:50:29.494Z,1.60
2022-11-13T07:53:18.855Z,1.60
2022-11-13T07:56:07.286Z,1.70
2022-11-13T07:58:57.342Z,1.70
2022-11-13T08:01:48.479Z,1.70
2022-11-13T08:04:36.586Z,1.70
2022-11-13T08:07:27.371Z,1.70
2022-11-13T08:10:15.979Z,1.80
2022-11-13T08:13:05.152Z,2.10
2022-11-13T08:15:52.779Z,3.10
2022-11-13T08:18:41.355Z,4.00
2022-11-13T08:21:29.619Z,4.70
2022-11-13T08:24:16.500Z,5.70
2022-11-13T08:27:03.264Z,7.00
2022-11-13T08:29:50.491Z,7.80
2022-11-13T08:32:37.445Z,8.00
2022-11-13T08:35:29.375Z,8.40
2022-11-13T08:38:16.828Z,8.80
2022-11-13T08:41:08.920Z,9.10
2022-11-13T08:43:56.852Z,9.50
2022-11-13T08:46:43.988Z,9.80
2022-11-13T08:49:30.876Z,10.40
2022-11-13T08:52:19.303Z,11.30
2022-11-13T08:55:06.908Z,12.10
2022-11-13T08:57:53.861Z,12.60
2022-11-13T09:00:40.858Z,13.20
2022-11-13T09:03:27.708Z,14.10
2022-11-13T09:06:14.483Z,15.00
2022-11-13T09:09:03.306Z,15.40
2022-11-13T09:11:50.870Z,15.60
2022-11-13T09:14:38.112Z,16.00
2022-11-13T09:17:25.183Z,16.70
2022-11-13T09:20:14.019Z,17.50
2022-11-13T09:23:02.849Z,18.10
2022-11-13T09:25:51.337Z,18.60
2022-11-13T09:28:38.370Z,19.20
2022-11-13T09:31:25.733Z,19.90
2022-11-13T09:34:12.542Z,20.60
2022-11-13T09:36:59.411Z,21.20
2022-11-13T09:39:46.554Z,21.80
2022-11-13T09:42:38.162Z,22.30
2022-11-13T09:45:25.388Z,22.80
2022-11-13T09:48:22.988Z,23.20
2022-11-13T09:51:14.769Z,23.60
2022-11-13T09:54:06.226Z,23.90
2022-11-13T09:56:58.766Z,24.20
2022-11-13T09:59:53.126Z,24.50
2022-11-13T10:02:54.380Z,24.80
2022-11-13T10:05:47.038Z,24.70
2022-11-13T10:08:47.904Z,24.50
2022-11-13T10:11:40.375Z,24.20
2022-11-13T10:14:32.643Z,24.40
2022-11-13T10:17:28.438Z,23.80
2022-11-13T10:20:18.923Z,23.90
2022-11-13T10:23:13.585Z,24.20
2022-11-13T10:26:17.397Z,24.40
2022-11-13T10:29:12.049Z,24.00
2022-11-13T10:31:59.312Z,23.90
2022-11-13T10:34:53.939Z,24.00
2022-11-13T10:37:53.466Z,24.10
2022-11-13T10:40:42.053Z,24.30
2022-11-13T10:43:29.381Z,24.60
2022-11-13T10:46:22.001Z,24.70
2022-11-13T10:49:14.589Z,24.80
2022-11-13T10:52:08.454Z,25.00
2022-11-13T10:55:15.494Z,25.10
2022-11-13T10:58:03.890Z,25.30
2022-11-13T11:00:50.940Z,25.30
2022-11-13T11:03:37.539Z,25.40
2022-11-13T11:07:04.478Z,25.60
2022-11-13T11:09:47.621Z,25.70
2022-11-13T11:12:34.717Z,25.80
2022-11-13T11:15:26.616Z,25.80
2022-11-13T11:18:23.551Z,25.80
2022-11-13T11:21:14.997Z,25.80
2022-11-13T11:24:07.823Z,25.70
2022-11-13T11:27:04.298Z,25.60
2022-11-13T11:29:58.811Z,25.50
2022-11-13T11:32:52.355Z,25.50
2022-11-13T11:35:44.416Z,25.30
2022-11-13T11:38:37.461Z,25.10
2022-11-13T11:41:29.984Z,24.50
2022-11-13T11:44:26.117Z,24.40
2022-11-13T11:47:16.184Z,24.10
2022-11-13T11:50:03.616Z,23.80
2022-11-13T11:53:01.080Z,23.70
2022-11-13T11:56:09.007Z,23.60
2022-11-13T11:59:27.202Z,23.30
2022-11-13T12:02:47.495Z,23.00
2022-11-13T12:05:46.240Z,22.60
2022-11-13T12:08:40.705Z,22.40
2022-11-13T12:11:31.591Z,22.20
2022-11-13T12:14:27.504Z,22.20
2022-11-13T12:17:31.346Z,21.80
2022-11-13T12:20:27.592Z,21.80
2022-11-13T12:23:28.657Z,21.80
2022-11-13T12:26:24.297Z,21.60
2022-11-13T12:29:26.381Z,21.20
2022-11-13T12:32:29.577Z,20.70
2022-11-13T12:35:19.476Z,20.70
2022-11-13T12:38:17.417Z,20.70
2022-11-13T12:41:12.481Z,20.80
2022-11-13T12:44:20.879Z,20.80
2022-11-13T12:47:09.655Z,20.70
2022-11-13T12:50:03.285Z,20.70
2022-11-13T12:53:11.416Z,20.60
2022-11-13T12:56:00.539Z,20.60
2022-11-13T12:59:23.703Z,20.60
2022-11-13T13:02:22.767Z,20.70
2022-11-13T13:05:24.883Z,20.70
2022-11-13T13:08:47.735Z,20.60
2022-11-13T13:11:45.043Z,20.50
2022-11-13T13:14:57.524Z,20.50
2022-11-13T13:17:44.449Z,20.40
2022-11-13T13:20:36.982Z,20.40
2022-11-13T13:23:29.101Z,20.50
2022-11-13T13:26:18.966Z,20.40
2022-11-13T13:29:31.872Z,20.00
2022-11-13T13:32:24.520Z,19.70
2022-11-13T13:35:16.504Z,19.80
2022-11-13T13:38:14.575Z,19.80
2022-11-13T13:41:17.055Z,20.00
2022-11-13T13:44:27.253Z,20.10
2022-11-13T13:47:23.627Z,20.20
2022-11-13T13:50:16.273Z,20.20
2022-11-13T13:53:04.693Z,20.20
2022-11-13T13:55:53.717Z,20.30
2022-11-13T13:58:41.846Z,20.40
2022-11-13T14:01:30.716Z,20.50
2022-11-13T14:04:20.677Z,20.50
2022-11-13T14:07:21.550Z,20.60
2022-11-13T14:10:17.182Z,20.60
2022-11-13T14:13:04.940Z,20.40
2022-11-13T14:16:02.305Z,20.20
2022-11-13T14:18:49.015Z,20.10
2022-11-13T14:21:35.779Z,19.90
2022-11-13T14:24:25.765Z,19.70
2022-11-13T14:27:19.472Z,19.40
2022-11-13T14:30:11.013Z,18.90
2022-11-13T14:33:10.127Z,18.50
2022-11-13T14:35:59.412Z,18.00
2022-11-13T14:38:52.211Z,17.50
2022-11-13T14:41:42.384Z,17.20
2022-11-13T14:44:34.448Z,16.80
2022-11-13T14:47:24.450Z,16.50
2022-11-13T14:50:22.188Z,16.10
2022-11-13T14:53:10.531Z,15.50
2022-11-13T14:55:59.270Z,15.10
2022-11-13T14:58:47.853Z,14.70
2022-11-13T15:01:36.374Z,14.50
2022-11-13T15:04:23.487Z,14.30
2022-11-13T15:07:22.995Z,14.10
2022-11-13T15:10:14.896Z,13.90
2022-11-13T15:13:01.935Z,13.60
2022-11-13T15:15:48.611Z,13.40
2022-11-13T15:18:36.736Z,13.10
2022-11-13T15:21:24.590Z,12.90
2022-11-13T15:24:12.149Z,12.70
2022-11-13T15:26:59.239Z,12.40
2022-11-13T15:29:46.407Z,12.20
2022-11-13T15:32:33.577Z,11.90
2022-11-13T15:35:22.965Z,11.70
2022-11-13T15:38:09.983Z,11.40
2022-11-13T15:40:56.862Z,11.20
2022-11-13T15:43:46.226Z,11.00
2022-11-13T15:46:33.106Z,10.80
2022-11-13T15:49:19.877Z,10.60
2022-11-13T15:52:08.672Z,10.40
2022-11-13T15:54:55.648Z,10.20
2022-11-13T15:57:43.203Z,10.00
2022-11-13T16:00:30.648Z,9.80
2022-11-13T16:03:19.213Z,9.60
2022-11-13T16:06:06.537Z,9.30
2022-11-13T16:08:54.919Z,8.90
2022-11-13T16:11:43.622Z,8.80
2022-11-13T16:14:30.725Z,8.70
2022-11-13T16:17:20.376Z,8.70
2022-11-13T16:20:11.329Z,8.70
2022-11-13T16:22:58.198Z,8.80
2022-11-13T16:25:47.524Z,8.80
2022-11-13T16:28:42.063Z,8.80
2022-11-13T16:31:41.636Z,8.80
2022-11-13T16:34:28.437Z,8.80
2022-11-13T16:37:17.082Z,8.70
2022-11-13T16:40:03.954Z,8.50
2022-11-13T16:42:52.729Z,8.30
2022-11-13T16:45:39.857Z,8.10
2022-11-13T16:48:26.855Z,7.90
2022-11-13T16:51:13.568Z,7.70
2022-11-13T16:54:00.286Z,7.50
2022-11-13T16:56:47.021Z,7.30
2022-11-13T16:59:35.361Z,7.10
2022-11-13T17:02:22.025Z,6.90
2022-11-13T17:05:11.858Z,6.80
2022-11-13T17:08:00.204Z,6.50
2022-11-13T17:10:46.929Z,6.30
2022-11-13T17:13:33.773Z,6.10
2022-11-13T17:16:22.284Z,6.00
2022-11-13T17:19:13.111Z,5.90
2022-11-13T17:21:59.992Z,5.70
2022-11-13T17:24:46.762Z,5.70
2022-11-13T17:27:33.595Z,5.60
2022-11-13T17:30:20.630Z,5.50
2022-11-13T17:33:09.170Z,5.50
2022-11-13T17:35:56.343Z,5.40
2022-11-13T17:38:43.447Z,5.30
2022-11-13T17:41:30.143Z,5.30
2022-11-13T17:44:16.750Z,5.20
2022-11-13T17:47:03.510Z,5.20
2022-11-13T17:49:51.881Z,5.10
2022-11-13T17:52:38.812Z,5.00
2022-11-13T17:55:25.823Z,4.90
2022-11-13T17:58:12.559Z,4.80
2022-11-13T18:01:06.025Z,4.80
2022-11-13T18:03:56.135Z,4.70
2022-11-13T18:06:44.776Z,4.70
2022-11-13T18:09:31.721Z,4.60
2022-11-13T18:12:18.504Z,4.60
2022-11-13T18:15:05.882Z,4.60
2022-11-13T18:17:52.872Z,4.50
2022-11-13T18:20:41.492Z,4.50
2022-11-13T18:23:30.093Z,4.40
2022-11-13T18:26:19.858Z,4.40
2022-11-13T18:29:06.705Z,4.30
2022-11-13T18:31:53.258Z,4.20
2022-11-13T18:34:40.063Z,4.00
2022-11-13T18:37:27.005Z,4.00
2022-11-13T18:40:15.259Z,3.90
2022-11-13T18:43:01.966Z,3.90
2022-11-13T18:45:57.507Z,3.80
2022-11-13T18:48:45.824Z,3.80
2022-11-13T18:51:35.563Z,3.80
2022-11-13T18:54:22.765Z,3.70
2022-11-13T18:57:10.962Z,3.70
2022-11-13T18:59:57.805Z,3.70
2022-11-13T19:02:44.484Z,3.60
2022-11-13T19:05:31.134Z,3.60
2022-11-13T19:08:18.104Z,3.60
2022-11-13T19:11:07.201Z,3.50
2022-11-13T19:13:55.564Z,3.40
2022-11-13T19:16:42.425Z,3.30
2022-11-13T19:19:29.331Z,3.20
2022-11-13T19:22:17.330Z,3.20
2022-11-13T19:25:04.711Z,3.10
2022-11-13T19:27:54.069Z,3.00
2022-11-13T19:30:47.524Z,3.00
2022-11-13T19:33:34.225Z,2.90
2022-11-13T19:36:21.663Z,2.80
2022-11-13T19:39:09.771Z,2.80
2022-11-13T19:41:56.770Z,2.70
2022-11-13T19:44:43.617Z,2.70
2022-11-13T19:47:31.791Z,2.70
2022-11-13T19:50:18.676Z,2.60
2022-11-13T19:53:05.663Z,2.60
2022-11-13T19:55:56.193Z,2.50
2022-11-13T19:58:44.874Z,2.40
2022-11-13T20:01:32.929Z,2.40
2022-11-13T20:04:21.263Z,2.40
2022-11-13T20:07:08.116Z,2.40
2022-11-13T20:09:55.208Z,2.40
2022-11-13T20:12:41.922Z,2.40
2022-11-13T20:15:28.718Z,2.40
2022-11-13T20:18:15.641Z,2.40
2022-11-13T20:21:04.347Z,2.40
2022-11-13T20:23:51.349Z,2.40
2022-11-13T20:26:38.336Z,2.40
2022-11-13T20:29:25.050Z,2.40
2022-11-13T20:32:11.630Z,2.50
2022-11-13T20:34:58.351Z,2.50
2022-11-13T20:37:46.506Z,2.50
2022-11-13T20:40:33.328Z,2.50
2022-11-13T20:43:20.136Z,2.50
2022-11-13T20:46:08.835Z,2.50
2022-11-13T20:48:55.915Z,2.50
2022-11-13T20:51:43.480Z,2.50
2022-11-13T20:54:31.853Z,2.50
2022-11-13T20:57:21.298Z,2.40
2022-11-13T21:00:10.075Z,2.40
2022-11-13T21:02:56.722Z,2.40
2022-11-13T21:05:43.353Z,2.50
2022-11-13T21:08:30.626Z,2.50
2022-11-13T21:11:22.014Z,2.50
2022-11-13T21:14:10.494Z,2.50
2022-11-13T21:16:57.178Z,2.50
2022-11-13T21:19:43.845Z,2.60
2022-11-13T21:22:30.524Z,2.80
2022-11-13T21:25:17.753Z,3.00
2022-11-13T21:28:06.530Z,3.30
2022-11-13T21:30:53.697Z,3.60
2022-11-13T21:33:41.498Z,4.00
2022-11-13T21:36:29.537Z,4.30
2022-11-13T21:39:16.816Z,4.60
2022-11-13T21:42:03.677Z,4.80
2022-11-13T21:44:51.737Z,4.80
2022-11-13T21:47:38.521Z,4.90
2022-11-13T21:50:25.664Z,5.10
2022-11-13T21:53:13.299Z,5.20
2022-11-13T21:55:59.932Z,5.30
2022-11-13T21:58:46.876Z,5.30
2022-11-13T22:01:38.499Z,5.30
2022-11-13T22:04:25.557Z,5.40
2022-11-13T22:07:12.217Z,5.50
2022-11-13T22:10:00.146Z,5.60
2022-11-13T22:12:48.839Z,5.70
2022-11-13T22:15:38.833Z,5.90
2022-11-13T22:18:27.585Z,6.00
2022-11-13T22:21:16.137Z,6.10
2022-11-13T22:24:03.485Z,6.20
2022-11-13T22:26:50.265Z,6.30
2022-11-13T22:29:37.039Z,6.30
2022-11-13T22:32:23.706Z,6.30
2022-11-13T22:35:12.130Z,6.30
2022-11-13T22:37:58.963Z,6.30
2022-11-13T22:40:46.130Z,6.40
2022-11-13T22:43:34.547Z,6.50
2022-11-13T22:46:23.831Z,6.50
2022-11-13T22:49:13.494Z,6.50
2022-11-13T22:52:01.641Z,6.50
2022-11-13T22:54:48.803Z,6.60
2022-11-13T22:57:35.896Z,6.50
2022-11-13T23:00:22.493Z,6.50
2022-11-13T23:03:09.896Z,6.50
2022-11-13T23:05:56.777Z,6.30
2022-11-13T23:08:45.318Z,6.40
2022-11-13T23:11:33.545Z,6.40
2022-11-13T23:14:20.534Z,6.50
2022-11-13T23:17:07.329Z,6.40
2022-11-13T23:19:54.062Z,6.40
2022-11-13T23:22:40.808Z,6.50
2022-11-13T23:25:28.928Z,6.50
2022-11-13T23:28:15.703Z,6.50
2022-11-13T23:31:02.345Z,6.60
2022-11-13T23:33:49.094Z,6.70
2022-11-13T23:36:36.062Z,6.70
2022-11-13T23:39:22.774Z,6.70
2022-11-13T23:42:10.997Z,6.80
2022-11-13T23:44:58.023Z,6.80
2022-11-13T23:47:44.764Z,6.90
2022-11-13T23:50:31.783Z,6.90
2022-11-13T23:53:19.017Z,6.80
2022-11-13T23:56:06.481Z,6.80
2022-11-13T23:58:54.872Z,6.70
